createdAt,value
2019-03-27T00:02:18.679Z,96941.52
2019-03-27T00:05:06.904Z,96942.16
2019-03-27T00:07:55.201Z,96943.78
2019-03-27T00:10:43.324Z,96945.75
2019-03-27T00:13:31.218Z,96950.84
2019-03-27T00:16:19.348Z,96943.77
2019-03-27T00:19:07.254Z,96944.53
2019-03-27T00:21:54.992Z,96939.66
2019-03-27T00:24:43.010Z,96930.48
2019-03-27T00:27:31.064Z,96919.72
2019-03-27T00:30:19.336Z,96916.50
2019-03-27T00:33:08.073Z,96915.34
2019-03-27T00:35:56.702Z,96913.87
2019-03-27T00:38:45.156Z,96918.59
2019-03-27T00:41:33.157Z,96922.31
2019-03-27T00:44:21.521Z,96919.65
2019-03-27T00:47:09.509Z,96918.21
2019-03-27T00:49:57.518Z,96916.31
2019-03-27T00:52:45.694Z,96914.67
2019-03-27T00:55:33.774Z,96919.45
2019-03-27T00:58:21.966Z,96924.78
2019-03-27T01:01:12.463Z,96926.20
2019-03-27T01:04:00.776Z,96920.11
2019-03-27T01:06:50.910Z,96925.00
2019-03-27T01:09:38.742Z,96918.86
2019-03-27T01:12:26.609Z,96922.06
2019-03-27T01:15:15.065Z,96923.66
2019-03-27T01:18:03.167Z,96923.45
2019-03-27T01:20:51.375Z,96924.24
2019-03-27T01:23:39.394Z,96915.94
2019-03-27T01:26:27.638Z,96917.98
2019-03-27T01:29:15.745Z,96916.42
2019-03-27T01:32:03.776Z,96922.58
2019-03-27T01:34:51.710Z,96918.05
2019-03-27T01:37:39.426Z,96922.06
2019-03-27T01:40:27.696Z,96918.77
2019-03-27T01:43:15.662Z,96923.00
2019-03-27T01:46:03.966Z,96921.95
2019-03-27T01:48:52.045Z,96924.00
2019-03-27T01:51:40.091Z,96916.76
2019-03-27T01:54:27.961Z,96918.66
2019-03-27T01:57:15.931Z,96915.19
2019-03-27T02:00:04.466Z,96914.06
2019-03-27T02:02:52.635Z,96916.72
2019-03-27T02:05:40.664Z,96913.61
2019-03-27T02:08:28.785Z,96915.02
2019-03-27T02:11:17.102Z,96915.98
2019-03-27T02:14:05.148Z,96918.38
2019-03-27T02:16:52.949Z,96919.16
2019-03-27T02:19:41.302Z,96915.14
2019-03-27T02:22:29.506Z,96922.66
2019-03-27T02:25:17.641Z,96923.00
2019-03-27T02:28:05.527Z,96917.42
2019-03-27T02:30:54.067Z,96920.00
2019-03-27T02:33:42.516Z,96914.93
2019-03-27T02:36:30.989Z,96921.27
2019-03-27T02:39:19.066Z,96919.16
2019-03-27T02:42:07.422Z,96912.98
2019-03-27T02:44:55.985Z,96917.13
2019-03-27T02:47:44.188Z,96920.98
2019-03-27T02:50:32.300Z,96916.85
2019-03-27T02:53:20.631Z,96913.09
2019-03-27T02:56:08.691Z,96917.11
2019-03-27T02:58:56.686Z,96915.19
2019-03-27T03:01:47.831Z,96917.42
2019-03-27T03:04:34.639Z,96910.27
2019-03-27T03:07:22.489Z,96905.37
2019-03-27T03:10:11.430Z,96910.39
2019-03-27T03:12:59.539Z,96915.80
2019-03-27T03:15:47.695Z,96910.39
2019-03-27T03:18:35.880Z,96900.53
2019-03-27T03:21:24.108Z,96900.66
2019-03-27T03:24:12.155Z,96898.25
2019-03-27T03:27:00.347Z,96897.38
2019-03-27T03:29:48.740Z,96894.07
2019-03-27T03:32:37.024Z,96891.16
2019-03-27T03:35:25.243Z,96892.22
2019-03-27T03:38:13.241Z,96898.79
2019-03-27T03:41:02.609Z,96897.86
2019-03-27T03:43:50.826Z,96906.33
2019-03-27T03:46:39.065Z,96913.13
2019-03-27T03:49:27.140Z,96905.61
2019-03-27T03:52:15.813Z,96907.11
2019-03-27T03:55:04.714Z,96910.97
2019-03-27T03:57:52.400Z,96914.44
2019-03-27T04:00:40.617Z,96916.01
2019-03-27T04:03:30.471Z,96910.78
2019-03-27T04:06:18.636Z,96918.95
2019-03-27T04:09:07.163Z,96916.30
2019-03-27T04:11:55.063Z,96917.73
2019-03-27T04:14:42.990Z,96920.28
2019-03-27T04:17:30.884Z,96918.98
2019-03-27T04:20:19.390Z,96917.89
2019-03-27T04:23:07.056Z,96915.88
2019-03-27T04:26:09.066Z,96922.12
2019-03-27T04:28:44.783Z,96918.53
2019-03-27T04:31:33.090Z,96920.08
2019-03-27T04:34:20.832Z,96922.80
2019-03-27T04:37:08.803Z,96927.30
2019-03-27T04:39:57.306Z,96921.92
2019-03-27T04:42:45.357Z,96919.43
2019-03-27T04:45:33.096Z,96915.88
2019-03-27T04:48:21.631Z,96913.66
2019-03-27T04:51:09.997Z,96916.62
2019-03-27T04:53:58.088Z,96918.35
2019-03-27T04:56:46.044Z,96917.95
2019-03-27T04:59:34.117Z,96915.84
2019-03-27T05:02:21.801Z,96913.15
2019-03-27T05:05:09.967Z,96918.22
2019-03-27T05:07:58.554Z,96914.66
2019-03-27T05:10:46.510Z,96920.17
2019-03-27T05:13:34.635Z,96921.17
2019-03-27T05:16:22.822Z,96925.70
2019-03-27T05:19:11.358Z,96925.93
2019-03-27T05:21:59.629Z,96923.91
2019-03-27T05:24:47.877Z,96924.64
2019-03-27T05:27:36.618Z,96922.72
2019-03-27T05:30:31.178Z,96930.14
2019-03-27T05:33:19.386Z,96937.59
2019-03-27T05:36:07.630Z,96938.25
2019-03-27T05:38:55.606Z,96938.94
2019-03-27T05:41:43.869Z,96935.13
2019-03-27T05:44:32.047Z,96937.48
2019-03-27T05:47:20.104Z,96944.30
2019-03-27T05:50:08.164Z,96939.15
2019-03-27T05:52:56.214Z,96933.53
2019-03-27T05:55:44.315Z,96939.31
2019-03-27T05:58:33.009Z,96934.50
2019-03-27T06:01:21.266Z,96936.67
2019-03-27T06:04:09.338Z,96945.60
2019-03-27T06:06:57.602Z,96931.68
2019-03-27T06:09:45.609Z,96935.67
2019-03-27T06:12:34.130Z,96933.00
2019-03-27T06:15:22.627Z,96940.26
2019-03-27T06:18:13.327Z,96935.73
2019-03-27T06:21:00.608Z,96935.86
2019-03-27T06:23:48.884Z,96936.02
2019-03-27T06:26:37.592Z,96927.73
2019-03-27T06:29:25.392Z,96930.25
2019-03-27T06:32:13.036Z,96933.81
2019-03-27T06:35:01.421Z,96945.34
2019-03-27T06:37:50.116Z,96940.70
2019-03-27T06:40:39.827Z,96942.31
2019-03-27T06:43:28.014Z,96942.64
2019-03-27T06:46:16.071Z,96949.41
2019-03-27T06:49:04.304Z,96946.48
2019-03-27T06:51:52.536Z,96940.75
2019-03-27T06:54:40.782Z,96942.48
2019-03-27T06:57:28.978Z,96943.04
2019-03-27T07:00:17.422Z,96940.11
2019-03-27T07:03:07.009Z,96942.48
2019-03-27T07:05:55.216Z,96937.91
2019-03-27T07:08:43.057Z,96942.00
2019-03-27T07:11:31.574Z,96938.06
2019-03-27T07:14:19.680Z,96940.77
2019-03-27T07:17:08.143Z,96938.83
2019-03-27T07:19:56.957Z,96945.92
2019-03-27T07:22:45.166Z,96946.80
2019-03-27T07:25:33.013Z,96947.19
2019-03-27T07:28:21.338Z,96940.08
2019-03-27T07:31:09.507Z,96943.20
2019-03-27T07:33:57.825Z,96939.34
2019-03-27T07:36:45.596Z,96943.05
2019-03-27T07:39:33.789Z,96955.34
2019-03-27T07:42:21.900Z,96948.17
2019-03-27T07:45:10.049Z,96947.44
2019-03-27T07:47:58.147Z,96944.28
2019-03-27T07:50:46.905Z,96947.45
2019-03-27T07:53:35.082Z,96952.22
2019-03-27T07:56:23.362Z,96948.67
2019-03-27T07:59:11.642Z,96944.23
2019-03-27T08:01:59.980Z,96950.58
2019-03-27T08:04:48.700Z,96945.67
2019-03-27T08:07:36.560Z,96950.95
2019-03-27T08:10:25.405Z,96942.88
2019-03-27T08:13:13.757Z,96943.58
2019-03-27T08:16:02.033Z,96949.41
2019-03-27T08:18:50.138Z,96951.63
2019-03-27T08:21:38.057Z,96947.84
2019-03-27T08:24:26.107Z,96941.70
2019-03-27T08:27:14.674Z,96952.17
2019-03-27T08:30:03.197Z,96948.86
2019-03-27T08:32:50.936Z,96953.00
2019-03-27T08:35:39.279Z,96954.64
2019-03-27T08:38:27.239Z,96950.63
2019-03-27T08:41:15.566Z,96950.70
2019-03-27T08:44:03.381Z,96955.82
2019-03-27T08:46:51.649Z,96962.52
2019-03-27T08:49:40.077Z,96968.89
2019-03-27T08:52:28.710Z,96960.48
2019-03-27T08:55:17.084Z,96960.02
2019-03-27T08:58:05.433Z,96962.19
2019-03-27T09:00:54.406Z,96965.38
2019-03-27T09:03:42.758Z,96971.25
2019-03-27T09:06:33.851Z,96965.56
2019-03-27T09:09:20.958Z,96978.23
2019-03-27T09:12:08.870Z,96959.98
2019-03-27T09:14:57.073Z,96966.36
2019-03-27T09:17:45.103Z,96962.63
2019-03-27T09:20:33.040Z,96967.39
2019-03-27T09:23:21.270Z,96971.29
2019-03-27T09:26:09.399Z,96970.97
2019-03-27T09:28:57.587Z,96973.61
2019-03-27T09:31:45.743Z,96974.42
2019-03-27T09:34:34.265Z,96980.50
2019-03-27T09:37:22.283Z,96994.84
2019-03-27T09:40:11.482Z,96988.36
2019-03-27T09:42:59.896Z,96982.55
2019-03-27T09:45:47.729Z,96982.80
2019-03-27T09:48:35.870Z,96981.37
2019-03-27T09:51:24.421Z,96983.75
2019-03-27T09:54:12.976Z,96981.98
2019-03-27T09:57:01.899Z,96993.61
2019-03-27T09:59:49.581Z,96987.67
2019-03-27T10:02:37.603Z,96976.00
2019-03-27T10:05:25.618Z,96990.08
2019-03-27T10:08:13.960Z,96979.45
2019-03-27T10:11:01.926Z,96983.91
2019-03-27T10:13:50.227Z,96983.39
2019-03-27T10:16:38.007Z,96977.07
2019-03-27T10:19:26.430Z,96974.93
2019-03-27T10:22:15.135Z,96977.25
2019-03-27T10:25:03.631Z,96974.85
2019-03-27T10:27:51.800Z,96977.86
2019-03-27T10:30:39.842Z,96970.54
2019-03-27T10:33:28.376Z,96978.13
2019-03-27T10:36:16.653Z,96983.65
2019-03-27T10:39:06.668Z,96979.61
2019-03-27T10:41:54.740Z,96978.89
2019-03-27T10:44:43.134Z,96972.64
2019-03-27T10:47:31.296Z,96970.45
2019-03-27T10:50:19.421Z,96967.91
2019-03-27T10:53:07.895Z,96964.58
2019-03-27T10:55:55.885Z,96967.45
2019-03-27T10:58:43.916Z,96965.69
2019-03-27T11:01:32.334Z,96955.27
2019-03-27T11:04:20.258Z,96960.12
2019-03-27T11:07:08.846Z,96966.31
2019-03-27T11:09:56.790Z,96951.36
2019-03-27T11:12:44.655Z,96956.62
2019-03-27T11:15:32.790Z,96963.77
2019-03-27T11:18:20.975Z,96952.41
2019-03-27T11:21:09.357Z,96954.27
2019-03-27T11:23:57.391Z,96963.67
2019-03-27T11:26:45.646Z,96949.91
2019-03-27T11:29:34.053Z,96965.62
2019-03-27T11:32:22.840Z,96956.12
2019-03-27T11:35:10.969Z,96940.69
2019-03-27T11:37:59.129Z,96961.61
2019-03-27T11:40:47.233Z,96945.25
2019-03-27T11:43:35.156Z,96937.30
2019-03-27T11:46:23.414Z,96948.97
2019-03-27T11:49:11.467Z,96955.31
2019-03-27T11:51:59.740Z,96937.87
2019-03-27T11:54:47.890Z,96936.45
2019-03-27T11:57:35.705Z,96947.47
2019-03-27T12:00:23.881Z,96939.98
2019-03-27T12:03:11.871Z,96939.17
2019-03-27T12:05:59.798Z,96927.31
2019-03-27T12:08:50.639Z,96933.25
2019-03-27T12:11:38.070Z,96928.13
2019-03-27T12:14:26.303Z,96917.94
2019-03-27T12:17:14.551Z,96915.86
2019-03-27T12:20:02.551Z,96933.91
2019-03-27T12:22:57.676Z,96923.84
2019-03-27T12:25:40.067Z,96929.02
2019-03-27T12:28:27.995Z,96920.39
2019-03-27T12:31:15.790Z,96906.90
2019-03-27T12:34:04.228Z,96920.14
2019-03-27T12:36:52.591Z,96927.86
2019-03-27T12:39:41.231Z,96915.14
2019-03-27T12:42:29.848Z,96919.53
2019-03-27T12:45:18.030Z,96929.08
2019-03-27T12:48:07.055Z,96931.95
2019-03-27T12:50:55.082Z,96930.28
2019-03-27T12:53:43.461Z,96939.09
2019-03-27T12:56:31.203Z,96922.86
2019-03-27T12:59:19.651Z,96926.19
2019-03-27T13:02:08.235Z,96917.09
2019-03-27T13:04:56.308Z,96924.27
2019-03-27T13:07:49.949Z,96929.86
2019-03-27T13:10:34.092Z,96922.89
2019-03-27T13:13:21.899Z,96918.91
2019-03-27T13:16:10.073Z,96919.44
2019-03-27T13:18:58.075Z,96915.41
2019-03-27T13:21:46.240Z,96909.03
2019-03-27T13:24:34.572Z,96905.44
2019-03-27T13:27:23.014Z,96916.82
2019-03-27T13:30:11.930Z,96909.62
2019-03-27T13:32:59.835Z,96906.76
2019-03-27T13:35:48.048Z,96910.56
2019-03-27T13:38:36.189Z,96918.70
2019-03-27T13:41:24.491Z,96919.75
2019-03-27T13:44:12.491Z,96919.27
2019-03-27T13:47:00.977Z,96909.46
2019-03-27T13:49:49.314Z,96928.24
2019-03-27T13:52:37.326Z,96924.85
2019-03-27T13:55:25.982Z,96920.26
2019-03-27T13:58:14.158Z,96914.44
2019-03-27T14:01:02.296Z,96926.27
2019-03-27T14:03:50.633Z,96914.13
2019-03-27T14:06:39.062Z,96913.64
2019-03-27T14:09:27.207Z,96913.94
2019-03-27T14:12:15.939Z,96912.72
2019-03-27T14:15:04.976Z,96918.08
2019-03-27T14:17:53.372Z,96914.13
2019-03-27T14:20:41.779Z,96923.03
2019-03-27T14:23:29.844Z,96928.50
2019-03-27T14:26:18.459Z,96919.02
2019-03-27T14:29:08.111Z,96924.66
2019-03-27T14:31:55.727Z,96924.52
2019-03-27T14:34:43.802Z,96911.22
2019-03-27T14:37:31.495Z,96917.04
2019-03-27T14:40:19.461Z,96926.72
2019-03-27T14:43:07.432Z,96919.27
2019-03-27T14:45:55.745Z,96923.30
2019-03-27T14:48:44.075Z,96934.64
2019-03-27T14:51:32.465Z,96931.36
2019-03-27T14:54:20.954Z,96924.27
2019-03-27T14:57:09.204Z,96939.36
2019-03-27T14:59:57.440Z,96926.25
2019-03-27T15:02:45.850Z,96926.58
2019-03-27T15:05:33.924Z,96930.50
2019-03-27T15:08:22.424Z,96929.13
2019-03-27T15:11:10.469Z,96932.66
2019-03-27T15:13:58.480Z,96927.88
2019-03-27T15:16:46.424Z,96930.06
2019-03-27T15:19:34.457Z,96926.16
2019-03-27T15:22:22.994Z,96929.09
2019-03-27T15:25:11.063Z,96923.56
2019-03-27T15:27:59.166Z,96919.30
2019-03-27T15:30:47.160Z,96922.91
2019-03-27T15:33:35.392Z,96933.37
2019-03-27T15:36:24.274Z,96933.45
2019-03-27T15:39:12.702Z,96932.06
2019-03-27T15:42:00.979Z,96926.24
2019-03-27T15:44:50.008Z,96932.91
2019-03-27T15:47:38.446Z,96929.35
2019-03-27T15:50:26.800Z,96928.65
2019-03-27T15:53:14.966Z,96925.88
2019-03-27T15:56:02.895Z,96922.25
2019-03-27T15:58:51.299Z,96927.23
2019-03-27T16:01:39.751Z,96921.97
2019-03-27T16:04:28.571Z,96923.61
2019-03-27T16:07:16.269Z,96926.58
2019-03-27T16:10:05.157Z,96937.16
2019-03-27T16:12:53.184Z,96938.09
2019-03-27T16:15:41.324Z,96927.51
2019-03-27T16:18:29.018Z,96928.74
2019-03-27T16:21:17.335Z,96941.41
2019-03-27T16:24:06.829Z,96939.51
2019-03-27T16:27:04.326Z,96939.66
2019-03-27T16:29:45.093Z,96925.48
2019-03-27T16:32:33.279Z,96926.42
2019-03-27T16:35:21.591Z,96926.39
2019-03-27T16:38:10.038Z,96926.22
2019-03-27T16:40:58.101Z,96931.00
2019-03-27T16:43:46.833Z,96934.81
2019-03-27T16:46:34.820Z,96936.80
2019-03-27T16:49:22.889Z,96943.47
2019-03-27T16:52:11.133Z,96942.38
2019-03-27T16:54:59.249Z,96944.02
2019-03-27T16:57:47.310Z,96948.81
2019-03-27T17:00:35.687Z,96953.08
2019-03-27T17:03:23.982Z,96953.14
2019-03-27T17:06:11.666Z,96954.49
2019-03-27T17:08:59.279Z,96954.59
2019-03-27T17:11:47.627Z,96962.02
2019-03-27T17:14:36.077Z,96970.09
2019-03-27T17:17:24.275Z,96967.37
2019-03-27T17:20:12.854Z,96972.88
2019-03-27T17:23:00.875Z,96974.45
2019-03-27T17:25:48.978Z,96978.42
2019-03-27T17:28:37.320Z,96988.08
2019-03-27T17:31:25.424Z,96988.64
2019-03-27T17:34:14.009Z,96987.52
2019-03-27T17:37:01.969Z,96992.63
2019-03-27T17:39:50.178Z,96996.05
2019-03-27T17:42:38.383Z,97001.81
2019-03-27T17:45:26.626Z,97001.98
2019-03-27T17:48:14.865Z,97008.02
2019-03-27T17:51:03.349Z,97011.24
2019-03-27T17:53:51.866Z,97009.40
2019-03-27T17:56:40.229Z,97014.80
2019-03-27T17:59:28.461Z,97016.34
2019-03-27T18:02:16.600Z,97025.15
2019-03-27T18:05:05.086Z,97022.80
2019-03-27T18:07:53.272Z,97025.80
2019-03-27T18:10:41.284Z,97032.58
2019-03-27T18:13:29.399Z,97032.93
2019-03-27T18:16:17.521Z,97029.34
2019-03-27T18:19:06.097Z,97032.45
2019-03-27T18:22:06.674Z,97035.16
2019-03-27T18:24:43.833Z,97028.72
2019-03-27T18:27:31.444Z,97037.91
2019-03-27T18:30:19.510Z,97040.34
2019-03-27T18:33:07.716Z,97038.96
2019-03-27T18:35:55.764Z,97037.09
2019-03-27T18:38:45.894Z,97043.11
2019-03-27T18:41:33.149Z,97042.53
2019-03-27T18:44:20.911Z,97045.42
2019-03-27T18:47:09.278Z,97047.78
2019-03-27T18:49:57.534Z,97052.95
2019-03-27T18:52:45.847Z,97051.83
2019-03-27T18:55:34.222Z,97057.23
2019-03-27T18:58:22.180Z,97055.89
2019-03-27T19:01:10.162Z,97058.64
2019-03-27T19:03:58.051Z,97061.09
2019-03-27T19:06:46.409Z,97063.50
2019-03-27T19:09:34.761Z,97065.97
2019-03-27T19:12:23.091Z,97065.71
2019-03-27T19:15:11.382Z,97068.73
2019-03-27T19:18:00.442Z,97069.32
2019-03-27T19:20:48.624Z,97063.45
2019-03-27T19:23:36.711Z,97066.92
2019-03-27T19:26:25.184Z,97067.73
2019-03-27T19:29:13.728Z,97067.80
2019-03-27T19:32:02.506Z,97072.08
2019-03-27T19:34:51.306Z,97078.01
2019-03-27T19:37:39.815Z,97081.27
2019-03-27T19:40:28.065Z,97079.66
2019-03-27T19:43:15.993Z,97085.06
2019-03-27T19:46:04.514Z,97086.12
2019-03-27T19:48:52.846Z,97093.39
2019-03-27T19:51:41.282Z,97086.96
2019-03-27T19:54:29.416Z,97084.54
2019-03-27T19:57:17.661Z,97091.28
2019-03-27T20:00:07.664Z,97089.41
2019-03-27T20:02:55.714Z,97095.08
2019-03-27T20:05:43.988Z,97090.22
2019-03-27T20:08:31.986Z,97091.86
2019-03-27T20:11:20.217Z,97098.04
2019-03-27T20:14:08.241Z,97097.25
2019-03-27T20:16:56.517Z,97095.63
2019-03-27T20:19:44.812Z,97089.14
2019-03-27T20:22:32.609Z,97095.89
2019-03-27T20:25:20.889Z,97090.25
2019-03-27T20:28:09.288Z,97089.44
2019-03-27T20:30:57.520Z,97091.58
2019-03-27T20:33:46.085Z,97082.95
2019-03-27T20:36:34.616Z,97084.00
2019-03-27T20:39:22.432Z,97079.70
2019-03-27T20:42:10.469Z,97079.95
2019-03-27T20:44:58.563Z,97079.40
2019-03-27T20:47:46.382Z,97077.00
2019-03-27T20:50:34.662Z,97076.16
2019-03-27T20:53:22.727Z,97078.61
2019-03-27T20:56:11.019Z,97076.16
2019-03-27T20:59:01.497Z,97074.02
2019-03-27T21:01:50.157Z,97076.14
2019-03-27T21:04:38.172Z,97083.13
2019-03-27T21:07:25.960Z,97085.03
2019-03-27T21:10:14.477Z,97086.09
2019-03-27T21:13:02.692Z,97083.38
2019-03-27T21:15:50.740Z,97086.08
2019-03-27T21:18:38.734Z,97090.38
2019-03-27T21:21:27.134Z,97076.38
2019-03-27T21:24:15.320Z,97087.70
2019-03-27T21:27:03.229Z,97087.14
2019-03-27T21:29:51.436Z,97083.36
2019-03-27T21:32:39.610Z,97085.22
2019-03-27T21:35:27.679Z,97089.28
2019-03-27T21:38:15.663Z,97084.67
2019-03-27T21:41:03.932Z,97093.81
2019-03-27T21:43:52.000Z,97089.98
2019-03-27T21:46:40.341Z,97096.26
2019-03-27T21:49:28.829Z,97094.33
2019-03-27T21:52:16.909Z,97095.91
2019-03-27T21:55:05.120Z,97099.16
2019-03-27T21:57:53.296Z,97093.49
2019-03-27T22:00:41.884Z,97105.08
2019-03-27T22:03:29.892Z,97106.66
2019-03-27T22:06:17.878Z,97103.19
2019-03-27T22:09:07.329Z,97102.04
2019-03-27T22:11:55.612Z,97102.86
2019-03-27T22:14:44.015Z,97104.52
2019-03-27T22:17:31.990Z,97098.50
2019-03-27T22:20:19.729Z,97106.07
2019-03-27T22:23:07.892Z,97112.14
2019-03-27T22:25:56.316Z,97107.36
2019-03-27T22:28:44.680Z,97117.00
2019-03-27T22:31:33.083Z,97119.19
2019-03-27T22:34:21.082Z,97115.66
2019-03-27T22:37:09.262Z,97116.38
2019-03-27T22:39:57.569Z,97117.27
2019-03-27T22:42:45.736Z,97118.80
2019-03-27T22:45:34.104Z,97121.75
2019-03-27T22:48:22.227Z,97117.38
2019-03-27T22:51:09.868Z,97120.68
2019-03-27T22:53:57.894Z,97123.37
2019-03-27T22:56:46.215Z,97115.77
2019-03-27T22:59:34.466Z,97108.54
2019-03-27T23:02:22.711Z,97115.95
2019-03-27T23:05:10.876Z,97116.61
2019-03-27T23:07:59.325Z,97117.16
2019-03-27T23:10:47.607Z,97115.95
2019-03-27T23:13:36.189Z,97117.86
2019-03-27T23:16:24.592Z,97114.84
2019-03-27T23:19:12.891Z,97111.72
2019-03-27T23:22:00.958Z,97108.54
2019-03-27T23:24:48.806Z,97107.70
2019-03-27T23:27:37.422Z,97108.52
2019-03-27T23:30:25.574Z,97110.67
2019-03-27T23:33:14.008Z,97113.36
2019-03-27T23:36:01.784Z,97113.63
2019-03-27T23:38:50.529Z,97113.55
2019-03-27T23:41:38.765Z,97115.95
2019-03-27T23:44:26.666Z,97112.73
2019-03-27T23:47:14.598Z,97114.25
2019-03-27T23:50:03.034Z,97119.77
2019-03-27T23:52:51.188Z,97114.08
2019-03-27T23:55:39.105Z,97111.01
2019-03-27T23:58:27.074Z,97110.33
